Time;durP1;ratioP1;P1;durP2;ratioP2;P2;SDS_P1;SDS_P2;PMS_P1;PMS_P2;Temp;Humidity;BMP_temperature;BMP_pressure;BME280_temperature;BME280_humidity;BME280_pressure;Samples;Min_cycle;Max_cycle;Signal;HPM_P1;HPM_P2
2022/07/07 16:49:56;;;;;;;27.70;4.30;;;;;;;19.84;100.00;98417.13;5055661;28;21057;-58
2022/07/07 22:09:46;;;;;;;45.50;6.03;;;;;;;15.71;100.00;98801.72;5052004;28;20673;-56
2022/07/07 22:12:14;;;;;;;34.33;4.68;;;;;;;16.35;100.00;98790.63;5052208;28;20143;-56
2022/07/07 22:14:44;;;;;;;25.20;3.85;;;;;;;16.54;100.00;98790.53;5056081;28;20024;-56
2022/07/07 22:17:10;;;;;;;25.88;3.90;;;;;;;17.13;100.00;98788.25;5057229;28;20086;-56
2022/07/07 22:19:36;;;;;;;34.33;4.80;;;;;;;16.05;100.00;98794.84;5072960;28;20135;-56
2022/07/07 22:22:02;;;;;;;28.30;4.18;;;;;;;16.69;100.00;98791.47;5056470;28;20142;-56
2022/07/07 22:24:28;;;;;;;34.97;4.80;;;;;;;15.73;100.00;98802.50;5056870;28;20024;-57
2022/07/07 22:26:53;;;;;;;29.38;4.15;;;;;;;16.08;100.00;98808.69;5056246;28;20430;-57
2022/07/07 22:29:18;;;;;;;30.55;4.65;;;;;;;15.79;100.00;98823.31;5054724;28;20031;-58
2022/07/07 22:31:44;;;;;;;29.63;4.57;;;;;;;15.22;100.00;98818.94;5057100;28;20468;-57
2022/07/07 22:34:09;;;;;;;36.53;5.47;;;;;;;15.35;100.00;98837.63;5054887;28;20020;-57
2022/07/07 22:36:35;;;;;;;32.17;4.70;;;;;;;15.20;100.00;98836.56;5054457;28;20067;-56
2022/07/07 22:39:01;;;;;;;35.60;4.90;;;;;;;15.71;100.00;98835.94;5056433;28;20769;-57
2022/07/07 22:41:27;;;;;;;31.35;4.82;;;;;;;15.16;100.00;98844.66;5055703;28;20036;-57
2022/07/07 22:43:53;;;;;;;30.27;4.45;;;;;;;15.30;100.00;98846.66;5056944;28;20028;-57
2022/07/07 22:46:19;;;;;;;28.67;4.35;;;;;;;15.78;100.00;98837.38;5056934;28;20044;-57
2022/07/07 22:48:44;;;;;;;28.27;4.03;;;;;;;15.51;100.00;98850.91;5057479;28;20048;-58
2022/07/07 22:51:10;;;;;;;32.65;4.97;;;;;;;15.50;100.00;98846.56;5056368;28;20592;-58
2022/07/07 22:53:37;;;;;;;40.45;5.57;;;;;;;15.45;100.00;98851.19;5056977;28;20108;-57
2022/07/07 22:56:05;;;;;;;25.00;4.18;;;;;;;15.23;100.00;98857.44;5056337;28;20024;-57
2022/07/07 22:58:31;;;;;;;33.33;4.82;;;;;;;15.36;100.00;98848.97;5059303;28;20024;-57
2022/07/07 23:00:59;;;;;;;30.05;4.80;;;;;;;15.12;100.00;98854.44;5059255;28;20028;-57
2022/07/07 23:03:29;;;;;;;44.13;5.82;;;;;;;14.89;100.00;98873.03;5060388;28;20493;-57
2022/07/07 23:05:56;;;;;;;33.47;5.32;;;;;;;14.78;100.00;98871.75;5059783;28;20093;-59
2022/07/07 23:08:21;;;;;;;35.85;5.75;;;;;;;14.83;100.00;98869.78;5061156;28;20107;-58
2022/07/07 23:10:47;;;;;;;30.45;4.60;;;;;;;14.80;100.00;98862.03;5059764;28;20196;-56
2022/07/07 23:13:13;;;;;;;33.13;5.10;;;;;;;14.73;100.00;98865.00;5060871;28;20437;-57
2022/07/07 23:15:40;;;;;;;33.10;4.60;;;;;;;14.93;100.00;98867.59;5059987;28;20087;-57
2022/07/07 23:18:06;;;;;;;28.23;4.55;;;;;;;15.23;100.00;98857.44;5060567;28;20059;-57
2022/07/07 23:20:31;;;;;;;25.00;4.15;;;;;;;15.01;100.00;98883.00;5059345;28;20054;-57
2022/07/07 23:22:57;;;;;;;36.92;5.25;;;;;;;15.04;100.00;98882.88;5060373;28;20746;-57
2022/07/07 23:25:22;;;;;;;26.30;4.28;;;;;;;14.88;100.00;98892.34;5059792;28;20036;-58
2022/07/07 23:27:47;;;;;;;32.88;4.60;;;;;;;14.87;100.00;98890.63;5060325;28;20397;-57
2022/07/07 23:30:13;;;;;;;41.75;5.53;;;;;;;14.71;100.00;98900.97;5059397;28;20590;-58
2022/07/07 23:32:38;;;;;;;28.13;4.45;;;;;;;14.82;100.00;98898.72;5060425;28;20048;-57
2022/07/07 23:35:04;;;;;;;30.63;4.45;;;;;;;14.79;100.00;98899.69;5059374;28;20063;-57
2022/07/07 23:37:29;;;;;;;32.10;4.70;;;;;;;14.59;100.00;98907.59;5059769;28;20936;-57
2022/07/07 23:39:55;;;;;;;23.35;3.85;;;;;;;14.68;100.00;98912.44;5056218;28;20077;-57
2022/07/07 23:42:20;;;;;;;30.35;4.68;;;;;;;14.83;100.00;98911.81;5057849;28;20143;-57
2022/07/07 23:44:45;;;;;;;34.25;5.57;;;;;;;14.64;100.00;98910.88;5058357;28;20420;-57
2022/07/07 23:47:11;;;;;;;35.90;5.05;;;;;;;14.50;100.00;98923.69;5059290;28;20094;-57
2022/07/07 23:49:36;;;;;;;32.13;4.75;;;;;;;14.65;100.00;98913.44;5059964;28;20058;-58
2022/07/07 23:52:02;;;;;;;22.33;3.90;;;;;;;14.07;100.00;98918.47;5058517;28;20694;-57
2022/07/07 23:54:27;;;;;;;28.20;4.60;;;;;;;14.51;100.00;98920.19;5059573;28;20056;-58
2022/07/07 23:56:53;;;;;;;30.40;4.60;;;;;;;14.42;100.00;98905.66;5059316;28;20060;-57
2022/07/07 23:59:18;;;;;;;35.67;5.25;;;;;;;13.99;100.00;98917.94;5059719;28;20016;-57
